createdAt,value
2022-08-20T00:02:16.557Z,80.94
2022-08-20T00:04:45.553Z,81.26
2022-08-20T00:07:14.763Z,81.00
2022-08-20T00:09:43.674Z,80.52
2022-08-20T00:12:14.116Z,79.96
2022-08-20T00:14:43.919Z,79.84
2022-08-20T00:17:12.274Z,79.96
2022-08-20T00:19:40.669Z,79.52
2022-08-20T00:22:09.027Z,79.24
2022-08-20T00:24:37.361Z,78.56
2022-08-20T00:27:05.775Z,77.92
2022-08-20T00:29:34.076Z,77.69
2022-08-20T00:32:03.862Z,76.92
2022-08-20T00:34:32.144Z,76.87
2022-08-20T00:37:00.418Z,76.11
2022-08-20T00:39:28.845Z,75.59
2022-08-20T00:41:57.086Z,75.40
2022-08-20T00:44:25.600Z,74.96
2022-08-20T00:46:54.841Z,74.68
2022-08-20T00:49:28.115Z,74.41
2022-08-20T00:52:02.670Z,73.73
2022-08-20T00:54:36.431Z,73.00
2022-08-20T00:57:11.122Z,72.80
2022-08-20T00:59:43.431Z,72.82
2022-08-20T01:02:18.617Z,72.47
2022-08-20T01:04:51.066Z,72.55
2022-08-20T01:07:20.592Z,72.19
2022-08-20T01:09:59.077Z,72.05
2022-08-20T01:12:30.420Z,71.61
2022-08-20T01:15:02.594Z,71.74
2022-08-20T01:17:36.337Z,71.72
2022-08-20T01:20:12.126Z,72.07
2022-08-20T01:23:06.680Z,72.21
2022-08-20T01:25:45.179Z,72.28
2022-08-20T01:28:15.991Z,72.28
2022-08-20T01:30:44.693Z,72.62
2022-08-20T01:33:13.646Z,73.08
2022-08-20T01:35:44.530Z,72.99
2022-08-20T01:38:14.457Z,73.15
2022-08-20T01:41:10.504Z,73.29
2022-08-20T01:43:41.687Z,73.44
2022-08-20T01:46:11.626Z,73.49
2022-08-20T01:48:41.330Z,73.94
2022-08-20T01:51:14.650Z,74.47
2022-08-20T01:53:46.979Z,74.45
2022-08-20T01:56:21.452Z,74.59
2022-08-20T01:58:54.834Z,74.32
2022-08-20T02:01:30.474Z,74.69
2022-08-20T02:03:58.873Z,74.90
2022-08-20T02:06:29.099Z,75.13
2022-08-20T02:09:00.259Z,75.24
2022-08-20T02:11:33.222Z,75.36
2022-08-20T02:14:01.997Z,75.81
2022-08-20T02:16:33.576Z,75.76
2022-08-20T02:19:09.928Z,76.10
2022-08-20T02:21:42.002Z,76.21
2022-08-20T02:24:10.812Z,76.48
2022-08-20T02:26:42.634Z,76.72
2022-08-20T02:29:13.860Z,76.91
2022-08-20T02:32:25.030Z,77.20
2022-08-20T02:34:35.384Z,77.74
2022-08-20T02:37:05.916Z,77.74
2022-08-20T02:39:35.138Z,78.03
2022-08-20T02:42:05.261Z,78.57
2022-08-20T02:44:34.338Z,78.80
2022-08-20T02:47:02.835Z,78.96
2022-08-20T02:49:31.665Z,80.09
2022-08-20T02:51:59.988Z,80.61
2022-08-20T02:54:29.269Z,80.65
2022-08-20T02:56:57.626Z,80.42
2022-08-20T02:59:27.281Z,79.95
2022-08-20T03:01:59.416Z,79.85
2022-08-20T03:04:29.401Z,80.14
2022-08-20T03:06:58.062Z,80.46
2022-08-20T03:09:27.013Z,80.56
2022-08-20T03:11:55.306Z,80.86
2022-08-20T03:14:24.910Z,81.23
2022-08-20T03:16:54.504Z,81.07
2022-08-20T03:19:23.078Z,81.11
2022-08-20T03:21:51.398Z,81.43
2022-08-20T03:24:19.945Z,81.19
2022-08-20T03:26:48.435Z,81.20
2022-08-20T03:29:16.718Z,81.83
2022-08-20T03:31:45.391Z,81.65
2022-08-20T03:34:14.963Z,82.12
2022-08-20T03:36:43.349Z,81.57
2022-08-20T03:39:13.262Z,81.10
2022-08-20T03:41:41.692Z,81.25
2022-08-20T03:44:10.149Z,81.27
2022-08-20T03:46:39.577Z,81.57
2022-08-20T03:49:08.113Z,81.62
2022-08-20T03:51:56.107Z,81.48
2022-08-20T03:54:31.596Z,81.37
2022-08-20T03:57:02.261Z,81.39
2022-08-20T03:59:33.026Z,81.26
2022-08-20T04:02:01.587Z,80.92
2022-08-20T04:04:29.954Z,81.05
2022-08-20T04:06:59.800Z,81.33
2022-08-20T04:09:28.918Z,81.24
2022-08-20T04:12:00.952Z,81.24
2022-08-20T04:14:29.447Z,80.87
2022-08-20T04:16:58.516Z,81.16
2022-08-20T04:19:29.199Z,81.13
2022-08-20T04:22:02.154Z,80.46
2022-08-20T04:24:31.860Z,80.21
2022-08-20T04:27:02.675Z,80.16
2022-08-20T04:29:32.585Z,80.96
2022-08-20T04:32:02.738Z,81.05
2022-08-20T04:34:35.627Z,81.25
2022-08-20T04:37:05.440Z,81.45
2022-08-20T04:39:34.552Z,81.59
2022-08-20T04:42:02.837Z,81.91
2022-08-20T04:44:31.131Z,81.44
2022-08-20T04:46:59.419Z,81.31
2022-08-20T04:49:27.869Z,81.30
2022-08-20T04:51:56.633Z,81.52
2022-08-20T04:54:26.286Z,82.00
2022-08-20T04:56:54.539Z,81.81
2022-08-20T04:59:22.826Z,82.02
2022-08-20T05:01:51.091Z,81.88
2022-08-20T05:04:19.352Z,81.69
2022-08-20T05:06:49.507Z,81.54
2022-08-20T05:09:17.915Z,81.95
2022-08-20T05:11:47.665Z,82.36
2022-08-20T05:14:16.019Z,82.38
2022-08-20T05:16:44.409Z,83.09
2022-08-20T05:19:14.558Z,83.33
2022-08-20T05:21:42.896Z,83.31
2022-08-20T05:24:12.059Z,83.17
2022-08-20T05:26:40.758Z,83.01
2022-08-20T05:29:10.421Z,82.73
2022-08-20T05:31:39.342Z,82.16
2022-08-20T05:34:10.977Z,81.85
2022-08-20T05:36:40.703Z,81.52
2022-08-20T05:39:10.334Z,81.09
2022-08-20T05:41:38.931Z,80.15
2022-08-20T05:44:13.243Z,80.25
2022-08-20T05:46:43.533Z,80.34
2022-08-20T05:49:14.575Z,79.88
2022-08-20T05:51:43.173Z,79.71
2022-08-20T05:54:11.888Z,79.30
2022-08-20T05:56:40.138Z,78.42
2022-08-20T05:59:12.465Z,77.88
2022-08-20T06:01:43.066Z,77.17
2022-08-20T06:04:27.958Z,76.54
2022-08-20T06:06:59.656Z,75.56
2022-08-20T06:09:31.690Z,75.47
2022-08-20T06:12:03.014Z,75.33
2022-08-20T06:14:32.890Z,74.62
2022-08-20T06:17:07.286Z,73.92
2022-08-20T06:19:38.696Z,73.84
2022-08-20T06:22:18.110Z,73.31
2022-08-20T06:24:49.582Z,71.79
2022-08-20T06:27:18.406Z,70.37
2022-08-20T06:29:48.825Z,69.82
2022-08-20T06:32:18.219Z,68.35
2022-08-20T06:34:50.667Z,67.58
2022-08-20T06:37:22.622Z,66.13
2022-08-20T06:39:52.933Z,65.51
2022-08-20T06:42:23.051Z,65.13
2022-08-20T06:44:52.722Z,63.90
2022-08-20T06:47:23.579Z,62.62
2022-08-20T06:49:52.000Z,62.14
2022-08-20T06:52:20.220Z,62.66
2022-08-20T06:55:03.349Z,60.50
2022-08-20T06:57:31.695Z,58.30
2022-08-20T07:00:01.344Z,56.67
2022-08-20T07:02:30.283Z,55.88
2022-08-20T07:04:59.456Z,56.94
2022-08-20T07:07:29.473Z,55.77
2022-08-20T07:10:02.101Z,56.06
2022-08-20T07:12:30.443Z,55.63
2022-08-20T07:15:00.163Z,54.57
2022-08-20T07:17:28.551Z,53.36
2022-08-20T07:19:56.892Z,53.14
2022-08-20T07:22:25.830Z,53.05
2022-08-20T07:24:54.153Z,51.94
2022-08-20T07:27:23.790Z,52.13
2022-08-20T07:30:13.802Z,51.56
2022-08-20T07:32:55.584Z,51.68
2022-08-20T07:35:24.176Z,51.46
2022-08-20T07:37:54.546Z,51.67
2022-08-20T07:40:28.525Z,51.04
2022-08-20T07:42:58.469Z,50.54
2022-08-20T07:45:27.058Z,50.18
2022-08-20T07:47:56.905Z,49.19
2022-08-20T07:50:27.420Z,48.36
2022-08-20T07:52:55.749Z,49.04
2022-08-20T07:55:25.013Z,48.42
2022-08-20T07:57:53.310Z,47.42
2022-08-20T08:00:23.916Z,47.74
2022-08-20T08:02:52.464Z,48.50
2022-08-20T08:05:22.113Z,48.54
2022-08-20T08:07:50.415Z,47.72
2022-08-20T08:10:23.172Z,46.34
2022-08-20T08:12:57.083Z,46.88
2022-08-20T08:15:31.499Z,45.21
2022-08-20T08:18:07.957Z,44.16
2022-08-20T08:20:46.707Z,42.61
2022-08-20T08:23:31.571Z,44.74
2022-08-20T08:26:00.442Z,44.05
2022-08-20T08:28:30.492Z,43.47
2022-08-20T08:30:59.427Z,43.26
2022-08-20T08:33:32.525Z,43.35
2022-08-20T08:36:05.108Z,42.15
2022-08-20T08:38:35.754Z,42.87
2022-08-20T08:41:13.414Z,42.74
2022-08-20T08:43:42.107Z,42.86
2022-08-20T08:46:12.731Z,41.98
2022-08-20T08:48:45.983Z,40.60
2022-08-20T08:51:23.000Z,42.74
2022-08-20T08:53:54.770Z,43.95
2022-08-20T08:56:28.775Z,44.56
2022-08-20T08:59:01.712Z,43.90
2022-08-20T09:01:55.653Z,43.49
2022-08-20T09:04:22.847Z,44.34
2022-08-20T09:06:54.445Z,45.56
2022-08-20T09:09:27.063Z,45.03
2022-08-20T09:12:03.117Z,44.67
2022-08-20T09:14:31.414Z,42.68
2022-08-20T09:16:59.683Z,42.85
2022-08-20T09:19:28.002Z,42.88
2022-08-20T09:21:57.689Z,43.88
2022-08-20T09:24:26.651Z,42.69
2022-08-20T09:26:54.938Z,42.46
2022-08-20T09:29:23.235Z,42.62
2022-08-20T09:31:51.878Z,43.31
2022-08-20T09:34:20.923Z,43.23
2022-08-20T09:36:49.172Z,43.55
2022-08-20T09:39:18.817Z,42.70
2022-08-20T09:41:47.124Z,43.00
2022-08-20T09:44:15.450Z,43.03
2022-08-20T09:46:43.671Z,43.57
2022-08-20T09:49:11.951Z,43.10
2022-08-20T09:51:40.273Z,42.04
2022-08-20T09:54:08.703Z,43.56
2022-08-20T09:56:38.432Z,44.04
2022-08-20T09:59:06.778Z,44.12
2022-08-20T10:01:35.152Z,43.75
2022-08-20T10:04:03.951Z,43.32
2022-08-20T10:06:35.861Z,44.31
2022-08-20T10:09:06.718Z,43.77
2022-08-20T10:11:35.181Z,44.11
2022-08-20T10:14:05.169Z,43.29
2022-08-20T10:16:33.481Z,43.77
2022-08-20T10:19:01.754Z,42.45
2022-08-20T10:21:33.376Z,42.55
2022-08-20T10:24:05.443Z,44.32
2022-08-20T10:26:33.741Z,43.30
2022-08-20T10:29:02.035Z,43.14
2022-08-20T10:31:31.614Z,43.18
2022-08-20T10:33:59.900Z,43.29
2022-08-20T10:36:28.176Z,42.93
2022-08-20T10:38:56.583Z,42.90
2022-08-20T10:41:24.939Z,43.69
2022-08-20T10:43:53.586Z,43.36
2022-08-20T10:46:22.011Z,43.47
2022-08-20T10:48:51.684Z,43.39
2022-08-20T10:51:19.961Z,43.41
2022-08-20T10:53:48.360Z,42.75
2022-08-20T10:56:16.600Z,43.48
2022-08-20T10:58:45.154Z,44.89
2022-08-20T11:01:13.928Z,44.60
2022-08-20T11:04:01.374Z,44.25
2022-08-20T11:06:29.775Z,44.86
2022-08-20T11:08:58.060Z,44.95
2022-08-20T11:11:26.328Z,45.60
2022-08-20T11:13:54.592Z,45.44
2022-08-20T11:16:22.899Z,45.64
2022-08-20T11:18:51.175Z,44.33
2022-08-20T11:21:20.835Z,45.37
2022-08-20T11:23:49.472Z,44.73
2022-08-20T11:26:24.439Z,44.70
2022-08-20T11:28:52.930Z,45.16
2022-08-20T11:31:21.183Z,46.09
2022-08-20T11:33:52.478Z,47.69
2022-08-20T11:36:26.306Z,48.43
2022-08-20T11:38:54.620Z,49.11
2022-08-20T11:41:22.879Z,48.56
2022-08-20T11:44:04.927Z,49.10
2022-08-20T11:46:39.615Z,48.08
2022-08-20T11:49:07.825Z,46.29
2022-08-20T11:51:49.944Z,46.80
2022-08-20T11:54:18.707Z,47.14
2022-08-20T11:56:47.713Z,46.46
2022-08-20T11:59:16.220Z,46.23
2022-08-20T12:01:49.925Z,46.96
2022-08-20T12:04:33.450Z,46.59
2022-08-20T12:07:11.333Z,46.04
2022-08-20T12:09:47.331Z,45.74
2022-08-20T12:12:22.390Z,45.70
2022-08-20T12:14:50.786Z,45.56
2022-08-20T12:17:23.874Z,46.73
2022-08-20T12:19:55.088Z,46.81
2022-08-20T12:22:26.066Z,46.57
2022-08-20T12:24:54.702Z,46.75
2022-08-20T12:27:26.962Z,48.07
2022-08-20T12:29:57.750Z,48.28
2022-08-20T12:32:29.256Z,48.90
2022-08-20T12:34:58.882Z,48.28
2022-08-20T12:37:31.759Z,47.73
2022-08-20T12:40:01.986Z,47.78
2022-08-20T12:42:31.364Z,47.37
2022-08-20T12:45:01.607Z,45.86
2022-08-20T12:47:33.422Z,47.81
2022-08-20T12:50:06.368Z,47.94
2022-08-20T12:52:36.759Z,47.74
2022-08-20T12:55:07.756Z,47.95
2022-08-20T12:57:38.452Z,46.95
2022-08-20T13:00:11.503Z,46.89
2022-08-20T13:02:41.223Z,46.95
2022-08-20T13:05:11.130Z,47.64
2022-08-20T13:07:42.945Z,47.32
2022-08-20T13:10:14.538Z,47.36
2022-08-20T13:12:43.060Z,47.48
2022-08-20T13:15:12.532Z,48.19
2022-08-20T13:17:41.625Z,47.71
2022-08-20T13:20:14.158Z,49.05
2022-08-20T13:22:44.568Z,48.83
2022-08-20T13:25:14.353Z,48.81
2022-08-20T13:27:44.591Z,49.23
2022-08-20T13:30:16.571Z,49.77
2022-08-20T13:32:45.583Z,50.86
2022-08-20T13:35:14.992Z,50.21
2022-08-20T13:37:44.646Z,50.79
2022-08-20T13:40:13.664Z,51.49
2022-08-20T13:42:42.066Z,50.43
2022-08-20T13:45:11.851Z,50.60
2022-08-20T14:29:27.184Z,47.99
2022-08-20T14:32:00.726Z,47.99
2022-08-20T14:34:29.308Z,46.66
2022-08-20T14:36:58.204Z,47.30
2022-08-20T14:39:26.537Z,46.61
2022-08-20T14:41:54.824Z,47.54
2022-08-20T14:44:23.053Z,47.53
2022-08-20T14:46:52.768Z,47.54
2022-08-20T14:49:21.123Z,46.00
2022-08-20T14:51:49.472Z,45.87
2022-08-20T14:54:17.786Z,46.21
2022-08-20T14:56:46.188Z,47.33
2022-08-20T15:02:28.994Z,47.08
2022-08-20T15:04:57.823Z,46.84
2022-08-20T15:07:29.589Z,46.10
2022-08-20T15:09:58.641Z,46.00
2022-08-20T15:12:27.199Z,45.64
2022-08-20T15:14:56.279Z,45.17
2022-08-20T15:17:31.391Z,45.66
2022-08-20T15:20:02.485Z,45.97
2022-08-20T15:22:30.862Z,46.45
2022-08-20T15:24:59.128Z,45.74
2022-08-20T15:27:27.849Z,46.31
2022-08-20T15:29:56.189Z,46.76
2022-08-20T15:32:24.578Z,46.63
2022-08-20T15:34:54.231Z,46.26
2022-08-20T15:37:25.269Z,46.51
2022-08-20T15:39:54.765Z,46.67
2022-08-20T15:42:24.601Z,46.60
2022-08-20T15:44:52.944Z,47.12
2022-08-20T15:47:26.522Z,47.13
2022-08-20T15:50:02.992Z,46.87
2022-08-20T15:52:38.358Z,47.61
2022-08-20T15:55:13.519Z,46.14
2022-08-20T15:57:54.644Z,46.08
2022-08-20T16:00:26.049Z,46.63
2022-08-20T16:03:27.891Z,46.20
2022-08-20T16:06:04.704Z,46.12
2022-08-20T16:09:02.727Z,45.53
2022-08-20T16:11:49.249Z,46.47
2022-08-20T16:14:21.425Z,45.56
2022-08-20T16:16:59.069Z,45.21
2022-08-20T16:19:36.490Z,46.33
2022-08-20T16:22:07.786Z,46.44
2022-08-20T16:24:36.173Z,46.45
2022-08-20T16:27:14.530Z,46.03
2022-08-20T16:29:55.187Z,46.19
2022-08-20T16:32:37.641Z,47.06
2022-08-20T16:35:29.826Z,46.98
2022-08-20T16:38:09.164Z,46.90
2022-08-20T16:40:49.720Z,46.96
2022-08-20T16:43:25.198Z,47.77
2022-08-20T16:45:59.949Z,47.84
2022-08-20T16:48:37.598Z,47.50
2022-08-20T16:51:12.613Z,47.50
2022-08-20T16:53:42.239Z,48.04
2022-08-20T16:56:10.576Z,48.58
2022-08-20T16:58:38.952Z,48.22
2022-08-20T17:01:12.547Z,48.27
2022-08-20T17:03:51.169Z,48.55
2022-08-20T17:06:30.597Z,48.95
2022-08-20T17:09:01.343Z,49.79
2022-08-20T17:11:33.037Z,49.89
2022-08-20T17:14:12.293Z,49.99
2022-08-20T17:16:45.783Z,49.94
2022-08-20T17:19:20.161Z,50.32
2022-08-20T17:21:50.648Z,49.95
2022-08-20T17:24:24.797Z,50.04
2022-08-20T17:27:00.290Z,50.04
2022-08-20T17:29:32.928Z,50.05
2022-08-20T17:32:10.600Z,50.29
2022-08-20T17:34:47.623Z,50.69
2022-08-20T17:37:23.215Z,50.99
2022-08-20T17:39:56.151Z,51.33
2022-08-20T17:42:27.852Z,51.38
2022-08-20T17:45:05.406Z,51.13
2022-08-20T17:47:40.252Z,50.90
2022-08-20T17:50:15.058Z,51.34
2022-08-20T17:52:49.271Z,51.23
2022-08-20T17:55:20.462Z,51.63
2022-08-20T17:57:53.568Z,51.99
2022-08-20T18:00:25.734Z,51.92
2022-08-20T18:02:59.219Z,51.59
2022-08-20T18:05:32.792Z,51.04
2022-08-20T18:08:17.850Z,51.25
2022-08-20T18:10:58.445Z,51.54
2022-08-20T18:13:53.955Z,51.58
2022-08-20T18:16:30.759Z,51.90
2022-08-20T18:19:07.112Z,51.97
2022-08-20T18:22:05.757Z,52.23
2022-08-20T18:24:44.789Z,52.30
2022-08-20T18:27:18.267Z,52.51
2022-08-20T18:29:56.077Z,52.48
2022-08-20T18:32:31.865Z,52.89
2022-08-20T18:35:14.189Z,52.89
2022-08-20T18:37:42.726Z,53.17
2022-08-20T18:40:31.117Z,53.31
2022-08-20T18:43:13.246Z,53.62
2022-08-20T18:45:42.212Z,53.44
2022-08-20T18:48:24.502Z,53.68
2022-08-20T18:50:57.376Z,53.97
2022-08-20T18:53:33.855Z,54.15
2022-08-20T18:56:06.973Z,54.04
2022-08-20T18:58:59.095Z,54.18
2022-08-20T19:01:27.457Z,54.84
2022-08-20T19:03:58.105Z,56.13
2022-08-20T19:06:37.182Z,56.26
2022-08-20T19:09:15.588Z,55.60
2022-08-20T19:12:01.529Z,55.53
2022-08-20T19:15:01.679Z,56.16
2022-08-20T19:17:44.687Z,56.25
2022-08-20T19:20:17.010Z,56.77
2022-08-20T19:22:46.744Z,56.58
2022-08-20T19:25:29.257Z,56.34
2022-08-20T19:28:00.358Z,56.61
2022-08-20T19:30:37.399Z,56.82
2022-08-20T19:33:07.306Z,57.17
2022-08-20T19:35:36.924Z,57.36
2022-08-20T19:38:09.264Z,57.46
2022-08-20T19:40:40.305Z,57.90
2022-08-20T19:43:18.896Z,58.48
2022-08-20T19:45:54.275Z,58.42
2022-08-20T19:48:48.434Z,58.20
2022-08-20T19:51:27.612Z,59.01
2022-08-20T19:53:56.505Z,61.19
2022-08-20T19:56:28.197Z,61.94
2022-08-20T19:59:02.594Z,62.34
2022-08-20T20:01:33.232Z,62.54
2022-08-20T20:04:05.827Z,63.18
2022-08-20T20:06:50.033Z,63.72
2022-08-20T20:09:24.801Z,62.85
2022-08-20T20:11:56.935Z,62.29
2022-08-20T20:14:30.773Z,61.96
2022-08-20T20:17:01.016Z,61.91
2022-08-20T20:19:29.389Z,62.15
2022-08-20T20:22:18.979Z,63.34
2022-08-20T20:24:59.599Z,63.31
2022-08-20T20:27:29.854Z,63.27
2022-08-20T20:30:03.662Z,63.29
2022-08-20T20:32:34.593Z,63.42
2022-08-20T20:35:06.913Z,63.84
2022-08-20T20:37:49.091Z,63.97
2022-08-20T20:40:26.101Z,64.10
2022-08-20T20:43:05.492Z,64.49
2022-08-20T20:45:37.217Z,64.77
2022-08-20T20:48:19.697Z,64.87
2022-08-20T20:50:49.738Z,64.68
2022-08-20T20:53:51.293Z,64.98
2022-08-20T20:56:32.098Z,64.87
2022-08-20T20:59:06.080Z,64.93
2022-08-20T21:01:48.391Z,65.06
2022-08-20T21:04:22.285Z,64.96
2022-08-20T21:06:52.103Z,65.16
2022-08-20T21:09:21.725Z,65.27
2022-08-20T21:11:50.754Z,65.28
2022-08-20T21:14:19.616Z,65.36
2022-08-20T21:16:48.089Z,65.58
2022-08-20T21:19:17.106Z,65.34
2022-08-20T21:21:47.126Z,65.35
2022-08-20T21:24:15.512Z,65.77
2022-08-20T21:26:44.195Z,65.95
2022-08-20T21:29:16.636Z,66.14
2022-08-20T21:31:46.810Z,66.65
2022-08-20T21:34:17.326Z,66.78
2022-08-20T21:36:47.515Z,66.85
2022-08-20T21:39:16.117Z,66.82
2022-08-20T21:41:45.678Z,67.09
2022-08-20T21:44:22.400Z,67.12
2022-08-20T21:46:56.919Z,67.01
2022-08-20T21:49:27.463Z,66.97
2022-08-20T21:51:57.443Z,66.87
2022-08-20T21:54:27.237Z,66.90
2022-08-20T21:57:00.187Z,66.85
2022-08-20T21:59:28.985Z,66.84
2022-08-20T22:01:57.876Z,67.02
2022-08-20T22:04:26.161Z,66.87
2022-08-20T22:06:55.946Z,67.00
2022-08-20T22:09:24.359Z,67.12
2022-08-20T22:11:55.193Z,67.43
2022-08-20T22:14:25.599Z,68.20
2022-08-20T22:16:54.038Z,69.09
2022-08-20T22:19:22.486Z,68.72
2022-08-20T22:21:51.640Z,69.60
2022-08-20T22:24:21.374Z,69.96
2022-08-20T22:26:49.674Z,69.59
2022-08-20T22:29:17.957Z,69.09
2022-08-20T22:31:46.462Z,69.49
2022-08-20T22:34:18.726Z,69.43
2022-08-20T22:36:47.335Z,69.85
2022-08-20T22:39:15.713Z,69.40
2022-08-20T22:41:45.447Z,69.43
2022-08-20T22:44:13.703Z,69.19
2022-08-20T22:46:47.591Z,69.28
2022-08-20T22:49:22.462Z,69.29
2022-08-20T22:51:50.970Z,69.23
2022-08-20T22:54:24.988Z,69.09
2022-08-20T22:56:56.355Z,69.09
2022-08-20T22:59:25.318Z,69.16
2022-08-20T23:01:55.052Z,69.23
2022-08-20T23:04:28.382Z,69.07
2022-08-20T23:06:57.640Z,69.20
2022-08-20T23:09:26.561Z,69.37
2022-08-20T23:11:56.556Z,69.34
2022-08-20T23:14:26.871Z,69.54
2022-08-20T23:17:02.060Z,69.69
2022-08-20T23:19:30.439Z,69.59
2022-08-20T23:21:58.723Z,69.93
2022-08-20T23:24:27.170Z,69.83
2022-08-20T23:26:57.126Z,69.77
2022-08-20T23:29:27.164Z,70.08
2022-08-20T23:31:57.013Z,70.27
2022-08-20T23:34:26.539Z,70.25
2022-08-20T23:36:58.082Z,70.28
2022-08-20T23:39:27.255Z,70.36
2022-08-20T23:41:57.086Z,70.37
2022-08-20T23:44:27.030Z,70.49
2022-08-20T23:46:58.062Z,70.49
2022-08-20T23:49:26.637Z,70.60
2022-08-20T23:51:55.324Z,70.67
2022-08-20T23:54:23.702Z,70.60
2022-08-20T23:56:52.047Z,70.34
2022-08-20T23:59:27.106Z,70.50
